Morrisville, Virginia
Current Conditions -  °F | °C
As of 10:15 AM on Thursday 18 Dec 2014 (Local Time) from KCJR Reporting Station
Clear Clear  
Wind Chill: 36°   Ceiling: Unl
Heat Index: 39°   Visibility: 10mi
Dew Point: 23°   Wind: 5mph
Humidity: 52%   Direction: 360°N
Pressure: 30.2"   Gusts: NA
Location:  38.5752°N, 77.8213°W
Report Text: KCJR 181515Z AUTO 36004KT 10SM CLR 04/M05 A3020 RMK AO2
Loading
Personal Weather Stations






























Interactive Weather Map New forecast layout! Learn more

10-Day Weather Forecast

Advertisements
Track Severe Weather on mobile